Time;durP1;ratioP1;P1;durP2;ratioP2;P2;SDS_P1;SDS_P2;PMS_P1;PMS_P2;Temp;Humidity;BMP_temperature;BMP_pressure;BME280_temperature;BME280_humidity;BME280_pressure;Samples;Min_cycle;Max_cycle;Signal;HPM_P1;HPM_P2
2021/12/12 00:00:59;;;;;;;60.83;22.95;;;;;;;4.12;100.00;98672.31;4905918;29;20750;-60
2021/12/12 00:03:40;;;;;;;46.85;19.17;;;;;;;3.96;100.00;98663.75;4906702;29;20042;-59
2021/12/12 00:06:14;;;;;;;779.30;47.25;;;;;;;4.43;100.00;98667.84;4909187;29;20035;-59
2021/12/12 00:08:42;;;;;;;221.48;24.55;;;;;;;4.57;100.00;98665.16;4908813;29;20032;-58
2021/12/12 00:11:10;;;;;;;43.42;18.55;;;;;;;4.11;100.00;98672.31;4910249;29;20405;-60
2021/12/12 00:13:45;;;;;;;314.98;29.98;;;;;;;4.13;100.00;98680.91;4911622;29;20028;-59
2021/12/12 00:16:10;;;;;;;39.92;19.88;;;;;;;4.15;100.00;98677.44;4923010;28;20514;-57
2021/12/12 00:18:36;;;;;;;125.15;22.60;;;;;;;4.33;100.00;98681.66;4914045;29;20486;-57
2021/12/12 00:21:03;;;;;;;61.15;17.55;;;;;;;4.56;100.00;98688.47;4911059;28;20809;-57
2021/12/12 00:23:29;;;;;;;45.88;21.05;;;;;;;3.98;100.00;98690.41;4910187;29;20036;-57
2021/12/12 00:25:57;;;;;;;43.00;20.70;;;;;;;4.14;100.00;98691.22;4909877;29;20044;-57
2021/12/12 00:28:23;;;;;;;42.63;20.08;;;;;;;3.96;100.00;98694.72;4909543;29;20059;-57
2021/12/12 00:30:54;;;;;;;31.83;14.77;;;;;;;4.20;100.00;98688.63;4911443;28;20176;-57
2021/12/12 00:33:20;;;;;;;44.05;20.38;;;;;;;4.23;100.00;98690.34;4908834;29;20028;-57
2021/12/12 00:35:46;;;;;;;42.13;18.83;;;;;;;4.18;100.00;98697.25;4910566;29;20055;-57
2021/12/12 00:38:16;;;;;;;47.00;17.65;;;;;;;4.27;100.00;98689.47;4907931;29;20020;-57
2021/12/12 00:40:47;;;;;;;43.28;19.42;;;;;;;3.97;100.00;98701.63;4910298;28;20710;-58
2021/12/12 00:43:21;;;;;;;43.85;19.38;;;;;;;4.17;100.00;98700.69;4906815;29;20033;-58
2021/12/12 00:45:46;;;;;;;41.00;19.27;;;;;;;3.92;100.00;98705.94;4907477;29;20856;-57
2021/12/12 00:48:12;;;;;;;39.30;18.88;;;;;;;3.97;100.00;98699.03;4910206;29;20032;-57
2021/12/12 00:50:40;;;;;;;29.20;12.60;;;;;;;4.26;100.00;98703.22;4911585;29;20047;-58
2021/12/12 00:53:08;;;;;;;39.95;16.63;;;;;;;4.28;100.00;98704.06;4908700;29;20020;-57
2021/12/12 00:55:38;;;;;;;37.63;19.35;;;;;;;4.08;100.00;98705.88;4910696;29;20047;-58
2021/12/12 00:58:13;;;;;;;40.15;18.25;;;;;;;4.14;100.00;98716.19;4909885;29;20031;-57
2021/12/12 01:00:48;;;;;;;38.22;19.27;;;;;;;4.05;100.00;98712.78;4909408;29;20096;-57
2021/12/12 01:03:16;;;;;;;37.05;17.88;;;;;;;3.96;100.00;98712.81;4910413;29;20035;-57
2021/12/12 01:05:44;;;;;;;40.45;17.55;;;;;;;4.11;100.00;98716.19;4910503;28;20047;-57
2021/12/12 01:08:10;;;;;;;34.65;17.98;;;;;;;4.02;100.00;98723.09;4917788;29;20664;-57
2021/12/12 01:10:44;;;;;;;40.60;18.15;;;;;;;3.78;100.00;98724.03;4911457;29;20040;-58
2021/12/12 01:13:10;;;;;;;40.70;18.23;;;;;;;3.82;100.00;98727.47;4915272;29;20036;-57
2021/12/12 01:16:16;;;;;;;39.90;18.40;;;;;;;4.18;100.00;98730.81;4916119;29;20043;-57
2021/12/12 01:18:47;;;;;;;42.10;18.15;;;;;;;4.25;100.00;98730.78;4930549;28;20036;-59
2021/12/12 01:21:19;;;;;;;39.17;17.67;;;;;;;4.07;100.00;98735.16;4914627;29;20036;-57
2021/12/12 01:23:57;;;;;;;35.22;15.88;;;;;;;4.32;100.00;98734.22;4916559;29;20124;-58
2021/12/12 01:26:23;;;;;;;38.25;17.50;;;;;;;3.95;100.00;98744.66;4915668;29;20632;-57
2021/12/12 01:28:53;;;;;;;37.33;18.10;;;;;;;4.17;100.00;98749.75;4918033;29;20051;-57
2021/12/12 01:31:25;;;;;;;34.42;17.50;;;;;;;4.22;100.00;98741.09;4915851;29;20047;-57
2021/12/12 01:33:59;;;;;;;36.08;17.33;;;;;;;3.84;100.00;98733.47;4914094;29;20028;-59
2021/12/12 01:36:43;;;;;;;48.70;17.25;;;;;;;3.91;100.00;98730.03;4917472;28;20123;-57
2021/12/12 01:39:11;;;;;;;34.05;15.30;;;;;;;4.14;100.00;98732.53;4917669;29;20055;-57
2021/12/12 01:42:01;;;;;;;40.00;17.63;;;;;;;3.75;100.00;98729.22;4915567;29;20047;-58
2021/12/12 01:44:28;;;;;;;39.50;16.77;;;;;;;3.89;100.00;98731.75;4916261;29;20031;-56
2021/12/12 01:47:08;;;;;;;35.30;16.90;;;;;;;3.83;100.00;98745.53;4915547;28;20074;-57
2021/12/12 01:49:38;;;;;;;35.90;16.70;;;;;;;3.79;100.00;98751.56;4916505;29;20771;-58
2021/12/12 01:52:06;;;;;;;35.38;17.75;;;;;;;3.81;100.00;98754.16;4915718;28;20043;-57
2021/12/12 01:54:43;;;;;;;37.67;17.13;;;;;;;3.92;100.00;98762.72;4915433;29;20042;-58
2021/12/12 01:57:12;;;;;;;35.70;16.30;;;;;;;4.02;100.00;98759.25;4915794;29;20036;-57
2021/12/12 01:59:40;;;;;;;35.13;15.43;;;;;;;4.07;100.00;98755.81;4915912;29;20036;-57
2021/12/12 02:02:21;;;;;;;33.25;15.52;;;;;;;4.16;100.00;98745.44;4917728;29;20051;-57
2021/12/12 02:04:51;;;;;;;35.92;17.50;;;;;;;3.87;100.00;98754.13;4916184;29;20132;-59
2021/12/12 02:07:21;;;;;;;37.65;17.60;;;;;;;3.93;100.00;98764.41;4915596;28;20507;-57
2021/12/12 02:09:47;;;;;;;38.13;17.65;;;;;;;4.02;100.00;98766.97;4930846;28;20079;-57
2021/12/12 02:12:14;;;;;;;33.83;14.93;;;;;;;4.35;100.00;98767.75;4916695;29;20036;-58
2021/12/12 02:14:42;;;;;;;27.75;11.60;;;;;;;4.60;100.00;98763.34;4914693;29;20107;-57
2021/12/12 02:17:29;;;;;;;33.42;13.43;;;;;;;4.80;100.00;98763.25;4914099;29;20031;-58
2021/12/12 02:35:55;;;;;;;36.60;16.73;;;;;;;4.22;100.00;98769.50;4913949;28;20035;-58
2021/12/12 02:38:27;;;;;;;33.78;14.00;;;;;;;4.31;100.00;98766.06;4913894;29;20258;-57
2021/12/12 02:40:59;;;;;;;39.42;15.43;;;;;;;4.44;100.00;98756.53;4910562;29;20123;-58
2021/12/12 02:43:27;;;;;;;37.22;14.65;;;;;;;4.59;100.00;98763.34;4916429;29;20031;-58
2021/12/12 02:45:55;;;;;;;34.60;12.65;;;;;;;4.86;100.00;98764.94;4912073;29;20043;-58
2021/12/12 02:48:31;;;;;;;28.05;11.52;;;;;;;4.62;100.00;98756.44;4912729;29;20034;-58
2021/12/12 02:51:00;;;;;;;32.78;15.82;;;;;;;4.55;100.00;98753.91;4912014;29;20120;-58
2021/12/12 02:53:31;;;;;;;30.13;14.70;;;;;;;4.51;100.00;98752.22;4912845;29;20051;-58
2021/12/12 02:56:04;;;;;;;32.75;15.10;;;;;;;4.35;100.00;98757.41;4911174;28;20130;-58
2021/12/12 02:58:30;;;;;;;30.83;13.93;;;;;;;4.35;100.00;98752.25;4921025;29;20024;-58
2021/12/12 03:01:29;;;;;;;27.08;11.95;;;;;;;4.70;100.00;98755.56;4912639;28;20032;-59
2021/12/12 03:03:55;;;;;;;28.80;12.82;;;;;;;4.89;100.00;98754.59;4911895;29;20494;-58
2021/12/12 03:06:27;;;;;;;35.95;16.55;;;;;;;4.56;100.00;98759.06;4909646;28;20554;-57
2021/12/12 03:08:57;;;;;;;29.85;13.32;;;;;;;4.74;100.00;98750.38;4912927;29;20171;-57
2021/12/12 03:11:27;;;;;;;32.05;14.65;;;;;;;4.88;100.00;98752.00;4910955;29;20090;-57
2021/12/12 03:13:52;;;;;;;31.52;14.55;;;;;;;4.49;100.00;98753.94;4913284;29;20047;-58
2021/12/12 03:16:18;;;;;;;29.73;14.38;;;;;;;4.53;100.00;98753.06;4912795;28;20064;-59
2021/12/12 03:18:45;;;;;;;23.75;11.60;;;;;;;4.77;100.00;98754.66;4913459;29;20032;-58
2021/12/12 03:21:19;;;;;;;29.80;13.68;;;;;;;4.65;100.00;98750.41;4911539;29;20040;-59
2021/12/12 03:23:52;;;;;;;30.98;14.43;;;;;;;4.46;100.00;98759.97;4911165;29;20108;-57
2021/12/12 03:26:20;;;;;;;27.42;13.25;;;;;;;4.65;100.00;98768.50;4911017;29;20121;-57
2021/12/12 03:28:49;;;;;;;28.25;12.90;;;;;;;4.77;100.00;98771.00;4911488;29;20020;-58
2021/12/12 03:31:25;;;;;;;31.90;12.65;;;;;;;4.71;100.00;98771.06;4911590;29;20580;-60
2021/12/12 03:33:51;;;;;;;29.63;13.73;;;;;;;4.54;100.00;98768.56;4912340;29;20439;-57
2021/12/12 03:36:18;;;;;;;20.48;10.48;;;;;;;4.94;100.00;98772.66;4913363;29;20040;-58
2021/12/12 03:38:51;;;;;;;31.27;14.15;;;;;;;4.52;100.00;98775.47;4911069;29;20517;-57
2021/12/12 03:41:22;;;;;;;19.38;9.00;;;;;;;5.05;100.00;98785.50;4918801;29;20494;-57
2021/12/12 03:43:58;;;;;;;30.23;14.57;;;;;;;4.64;100.00;98779.69;4912111;29;20035;-59
2021/12/12 03:46:24;;;;;;;27.95;13.15;;;;;;;4.54;100.00;98789.22;4910945;28;20106;-59
2021/12/12 03:48:50;;;;;;;32.22;14.68;;;;;;;4.70;100.00;98790.00;4913729;29;20024;-58
2021/12/12 03:51:18;;;;;;;27.23;13.63;;;;;;;4.71;100.00;98790.88;4910798;29;20123;-58
2021/12/12 03:53:44;;;;;;;23.17;12.13;;;;;;;4.70;100.00;98790.00;4912076;29;20024;-60
2021/12/12 03:56:11;;;;;;;24.17;10.25;;;;;;;5.01;100.00;98800.19;4911484;28;20034;-59
2021/12/12 03:58:37;;;;;;;8.73;4.20;;;;;;;5.75;100.00;98799.63;4918477;29;20108;-59
2021/12/12 04:01:29;;;;;;;36.35;14.52;;;;;;;5.21;100.00;98803.50;4910157;29;20036;-57
2021/12/12 04:03:58;;;;;;;26.20;12.00;;;;;;;4.91;100.00;98796.81;4912358;29;20043;-58
2021/12/12 04:06:29;;;;;;;19.50;8.82;;;;;;;5.57;100.00;98800.69;4909184;29;20284;-58
2021/12/12 04:08:54;;;;;;;16.80;7.45;;;;;;;5.48;100.00;98806.78;4910815;29;20035;-57
2021/12/12 04:11:28;;;;;;;26.10;14.55;;;;;;;4.95;100.00;98811.41;4909867;29;20040;-57
2021/12/12 04:13:56;;;;;;;16.17;6.88;;;;;;;5.35;100.00;98807.75;4911168;29;20032;-57
2021/12/12 04:16:23;;;;;;;31.83;13.57;;;;;;;5.28;100.00;98819.00;4910829;29;20040;-58
2021/12/12 04:18:49;;;;;;;28.83;13.80;;;;;;;4.81;100.00;98814.06;4911781;29;20059;-58
2021/12/12 04:21:18;;;;;;;22.25;12.25;;;;;;;5.44;100.00;98823.19;4911196;28;20039;-58
2021/12/12 04:23:44;;;;;;;15.70;6.55;;;;;;;5.11;100.00;98826.84;4917784;29;20038;-57
2021/12/12 04:26:25;;;;;;;28.95;14.18;;;;;;;5.06;100.00;98813.94;4910803;28;20032;-57
2021/12/12 04:29:19;;;;;;;26.67;11.88;;;;;;;5.09;100.00;98831.16;4912320;29;20031;-58
2021/12/12 04:31:51;;;;;;;30.83;13.85;;;;;;;4.83;100.00;98827.88;4913041;29;20063;-56
2021/12/12 04:34:21;;;;;;;31.17;14.70;;;;;;;5.07;100.00;98823.41;4908626;29;20098;-57
2021/12/12 04:36:48;;;;;;;28.73;14.75;;;;;;;4.87;100.00;98826.13;4912145;28;20135;-58
2021/12/12 04:39:29;;;;;;;30.75;14.00;;;;;;;4.95;100.00;98836.44;4913611;29;20095;-59
2021/12/12 04:41:59;;;;;;;25.83;10.75;;;;;;;5.25;100.00;98834.53;4909517;29;20068;-59
2021/12/12 04:44:32;;;;;;;30.30;13.25;;;;;;;6.28;100.00;98842.34;4909395;29;20067;-58
2021/12/12 04:49:56;;;;;;;8.82;4.03;;;;;;;7.15;100.00;98855.16;4911741;29;20113;-59
2021/12/12 04:52:51;;;;;;;31.10;12.52;;;;;;;6.01;100.00;98850.38;4910535;28;20040;-58
2021/12/12 04:55:25;;;;;;;21.70;11.77;;;;;;;6.30;100.00;98844.91;4924150;28;20028;-57
2021/12/12 04:58:14;;;;;;;19.63;10.02;;;;;;;6.51;100.00;98846.44;4911853;29;20481;-58
2021/12/12 05:01:13;;;;;;;19.13;9.02;;;;;;;7.01;100.00;98846.69;4907727;29;20043;-58
2021/12/12 05:03:56;;;;;;;10.15;5.15;;;;;;;6.53;100.00;98852.47;4909274;29;20036;-58
2021/12/12 05:06:31;;;;;;;12.40;5.53;;;;;;;7.52;100.00;98858.09;4908588;29;20529;-58
2021/12/12 05:09:09;;;;;;;15.45;6.30;;;;;;;7.25;100.00;98866.28;4911522;29;20098;-59
2021/12/12 05:11:44;;;;;;;19.70;8.90;;;;;;;6.24;100.00;98865.72;4909496;29;20055;-58
2021/12/12 05:14:21;;;;;;;17.67;7.32;;;;;;;6.44;100.00;98868.09;4911908;29;20107;-58
2021/12/12 05:16:52;;;;;;;10.35;5.25;;;;;;;8.41;100.00;98866.13;4910323;28;20036;-59
2021/12/12 05:19:22;;;;;;;12.43;7.30;;;;;;;6.66;100.00;98869.59;4913395;29;20024;-57
2021/12/12 05:21:51;;;;;;;6.68;3.60;;;;;;;9.73;100.00;98893.78;4910098;29;20095;-60
2021/12/12 05:24:19;;;;;;;4.38;2.92;;;;;;;9.87;100.00;98880.47;4908866;29;20027;-58
2021/12/12 05:26:51;;;;;;;15.45;7.95;;;;;;;7.17;100.00;98876.75;4911071;29;20028;-59
2021/12/12 05:29:27;;;;;;;5.57;3.50;;;;;;;7.68;100.00;98884.69;4916812;29;20028;-59
2021/12/12 05:31:55;;;;;;;7.78;4.40;;;;;;;6.98;100.00;98881.31;4910996;28;20681;-59
2021/12/12 05:34:26;;;;;;;8.10;4.82;;;;;;;7.81;100.00;98880.16;4911761;29;20044;-58
2021/12/12 05:36:53;;;;;;;12.18;5.80;;;;;;;6.29;100.00;98882.94;4909750;29;20044;-58
2021/12/12 05:39:20;;;;;;;4.85;3.05;;;;;;;8.44;100.00;98896.47;4910528;29;20580;-59
2021/12/12 05:41:47;;;;;;;5.80;3.70;;;;;;;6.99;100.00;98888.22;4912311;29;20394;-59
2021/12/12 05:44:13;;;;;;;10.75;5.13;;;;;;;5.74;93.28;98888.56;4910970;29;20052;-58
2021/12/12 05:46:39;;;;;;;11.38;5.90;;;;;;;6.15;100.00;98888.22;4910096;29;20031;-58
2021/12/12 05:49:06;;;;;;;12.00;5.60;;;;;;;5.23;96.31;98888.84;4910688;29;20027;-58
2021/12/12 05:51:32;;;;;;;11.05;5.75;;;;;;;5.33;99.56;98889.66;4908252;29;20071;-58
2021/12/12 05:53:58;;;;;;;10.60;5.32;;;;;;;4.99;100.00;98897.59;4908761;29;20062;-59
2021/12/12 05:56:24;;;;;;;14.82;6.90;;;;;;;5.16;100.00;98893.19;4908205;28;20422;-57
2021/12/12 05:58:51;;;;;;;14.60;7.00;;;;;;;4.68;100.00;98889.94;4912278;29;20024;-58
2021/12/12 06:01:18;;;;;;;13.07;6.03;;;;;;;4.34;100.00;98907.25;4916126;29;20532;-59
2021/12/12 06:03:45;;;;;;;8.20;5.15;;;;;;;4.32;100.00;98911.53;4911651;29;20094;-58
2021/12/12 06:06:15;;;;;;;14.27;5.95;;;;;;;5.09;100.00;98907.03;4911804;29;20044;-59
2021/12/12 06:08:43;;;;;;;9.77;5.72;;;;;;;4.20;100.00;98917.59;4911279;29;20032;-60
2021/12/12 06:11:10;;;;;;;11.18;4.55;;;;;;;4.23;100.00;98917.59;4912766;28;20063;-58
2021/12/12 06:13:37;;;;;;;14.88;5.25;;;;;;;4.43;100.00;98926.19;4911851;29;20030;-58
2021/12/12 06:16:03;;;;;;;9.85;4.80;;;;;;;4.28;100.00;98923.59;4912748;28;20574;-58
2021/12/12 06:18:31;;;;;;;11.30;5.35;;;;;;;4.60;100.00;98927.88;4912361;29;20550;-58
2021/12/12 06:20:57;;;;;;;11.15;5.78;;;;;;;4.17;100.00;98938.25;4911307;29;20052;-59
2021/12/12 06:23:23;;;;;;;11.82;5.45;;;;;;;4.19;100.00;98939.09;4911946;29;20032;-58
2021/12/12 06:25:50;;;;;;;9.90;5.65;;;;;;;4.11;100.00;98946.00;4913487;28;20068;-58
2021/12/12 06:28:27;;;;;;;13.77;5.55;;;;;;;3.78;100.00;98950.28;4914219;29;20093;-58
2021/12/12 06:30:54;;;;;;;14.48;6.10;;;;;;;3.98;100.00;98952.88;4913944;28;20040;-58
2021/12/12 06:33:20;;;;;;;15.25;6.15;;;;;;;3.56;100.00;98955.38;4912727;29;20171;-58
2021/12/12 06:35:45;;;;;;;16.65;5.97;;;;;;;3.61;100.00;98957.97;4912087;28;20040;-57
2021/12/12 06:38:12;;;;;;;9.27;3.88;;;;;;;4.11;100.00;98952.00;4912644;29;20490;-58
2021/12/12 06:40:39;;;;;;;17.75;6.30;;;;;;;3.59;100.00;98949.38;4911159;29;20047;-58
2021/12/12 06:43:07;;;;;;;13.65;6.20;;;;;;;3.44;100.00;98955.38;4911551;29;20032;-58
2021/12/12 06:45:34;;;;;;;11.57;5.72;;;;;;;3.66;100.00;98967.47;4916626;29;20087;-58
2021/12/12 06:48:02;;;;;;;14.93;5.60;;;;;;;3.58;100.00;98974.28;4909651;29;20032;-58
2021/12/12 06:50:29;;;;;;;18.90;6.72;;;;;;;3.51;100.00;98961.38;4911095;29;20131;-58
2021/12/12 06:52:55;;;;;;;15.15;5.60;;;;;;;4.17;100.00;98969.22;4913064;29;20401;-58
2021/12/12 06:55:22;;;;;;;9.75;4.97;;;;;;;4.83;100.00;98956.22;4910375;29;20023;-58
2021/12/12 06:57:49;;;;;;;10.73;5.40;;;;;;;3.95;100.00;98964.06;4911135;29;20058;-59
2021/12/12 07:00:18;;;;;;;14.98;6.07;;;;;;;3.94;100.00;98972.66;4912137;28;20072;-58
2021/12/12 07:02:44;;;;;;;11.52;5.60;;;;;;;3.53;100.00;98976.03;4913567;29;20111;-58
2021/12/12 07:05:20;;;;;;;7.45;4.07;;;;;;;4.13;100.00;98989.03;4912449;28;20086;-59
2021/12/12 07:07:47;;;;;;;13.10;5.57;;;;;;;3.77;100.00;98974.38;4911681;29;20087;-60
2021/12/12 07:10:16;;;;;;;11.73;5.50;;;;;;;3.55;100.00;98978.59;4911875;29;20043;-58
2021/12/12 07:12:43;;;;;;;12.07;5.63;;;;;;;3.51;100.00;98982.91;4910684;29;20028;-57
2021/12/12 07:15:13;;;;;;;12.32;5.43;;;;;;;3.81;100.00;98986.41;4910842;29;20027;-57
2021/12/12 07:17:40;;;;;;;13.20;6.03;;;;;;;3.80;100.00;98990.69;4910420;29;20022;-58
2021/12/12 07:20:09;;;;;;;16.60;6.45;;;;;;;3.73;100.00;98988.97;4911868;29;20099;-59
2021/12/12 07:22:35;;;;;;;14.02;6.15;;;;;;;3.72;100.00;99000.16;4911696;29;20063;-57
2021/12/12 07:25:02;;;;;;;13.70;5.47;;;;;;;4.49;100.00;98999.38;4912214;29;20494;-58
2021/12/12 07:27:28;;;;;;;15.05;5.78;;;;;;;3.55;100.00;98992.38;4912962;29;20040;-57
2021/12/12 07:29:56;;;;;;;10.05;5.32;;;;;;;3.97;100.00;99008.81;4912946;29;20026;-58
2021/12/12 07:32:22;;;;;;;16.73;5.65;;;;;;;3.93;100.00;99001.91;4912742;28;20047;-57
2021/12/12 07:34:48;;;;;;;9.52;5.10;;;;;;;3.65;100.00;98999.25;4914222;29;20191;-58
2021/12/12 07:37:14;;;;;;;10.18;5.45;;;;;;;3.41;100.00;98994.88;4911672;28;20532;-57
2021/12/12 07:39:41;;;;;;;10.05;5.18;;;;;;;3.41;100.00;98986.28;4910283;29;20148;-58
2021/12/12 07:42:08;;;;;;;14.18;6.18;;;;;;;3.56;98.22;98986.34;4919946;29;20078;-59
2021/12/12 07:44:36;;;;;;;18.35;5.85;;;;;;;3.36;100.00;98982.84;4913060;29;20036;-57
2021/12/12 07:47:04;;;;;;;11.45;5.30;;;;;;;3.19;100.00;98975.88;4914736;28;20048;-58
2021/12/12 07:49:33;;;;;;;11.80;5.60;;;;;;;3.59;99.47;98981.19;4916828;29;20811;-58
2021/12/12 07:51:59;;;;;;;11.35;5.72;;;;;;;3.42;100.00;98985.44;4910080;29;20546;-58
2021/12/12 07:54:26;;;;;;;8.85;4.60;;;;;;;3.92;100.00;98983.84;4913215;29;20904;-58
2021/12/12 07:56:52;;;;;;;13.52;5.82;;;;;;;3.49;100.00;98987.16;4911477;28;20048;-57
2021/12/12 07:59:18;;;;;;;12.20;4.95;;;;;;;3.58;100.00;98979.47;4912224;29;20035;-57
2021/12/12 08:01:47;;;;;;;10.05;5.40;;;;;;;3.38;100.00;98983.69;4919243;29;20497;-58
2021/12/12 08:04:15;;;;;;;13.98;5.22;;;;;;;3.56;100.00;98986.34;4913142;29;20031;-57
2021/12/12 08:06:41;;;;;;;12.15;5.63;;;;;;;3.47;100.00;98988.88;4910057;28;20032;-58
2021/12/12 08:09:09;;;;;;;10.20;5.05;;;;;;;3.74;100.00;98984.69;4913687;29;20512;-57
2021/12/12 08:11:36;;;;;;;12.10;5.85;;;;;;;3.74;100.00;98988.09;4911355;28;20047;-58
2021/12/12 08:14:06;;;;;;;13.20;5.90;;;;;;;3.92;100.00;98984.72;4911824;29;20043;-59
2021/12/12 08:16:32;;;;;;;13.60;5.30;;;;;;;4.08;100.00;98992.47;4895153;29;20040;-58
2021/12/12 08:18:58;;;;;;;12.98;4.97;;;;;;;4.00;100.00;98995.03;4911694;29;20118;-59
2021/12/12 08:21:24;;;;;;;11.05;4.97;;;;;;;3.68;100.00;98990.69;4912934;29;20047;-58
2021/12/12 08:23:51;;;;;;;13.32;5.05;;;;;;;3.45;100.00;98990.59;4910892;29;20023;-58
2021/12/12 08:26:18;;;;;;;10.40;5.32;;;;;;;3.55;100.00;98989.78;4912507;29;20044;-58
2021/12/12 08:28:45;;;;;;;14.75;5.90;;;;;;;3.89;100.00;98989.00;4912135;29;20486;-58
2021/12/12 08:31:11;;;;;;;12.27;5.35;;;;;;;3.79;100.00;98991.56;4912697;28;20594;-58
2021/12/12 08:33:38;;;;;;;14.27;5.20;;;;;;;3.81;96.91;98996.75;4909408;29;20459;-58
2021/12/12 08:36:04;;;;;;;13.25;5.63;;;;;;;3.99;100.00;98999.34;4911725;29;20932;-59
2021/12/12 08:38:30;;;;;;;11.13;5.35;;;;;;;4.05;98.87;98996.75;4911414;29;20024;-58
2021/12/12 08:41:00;;;;;;;13.77;5.43;;;;;;;4.28;100.00;99000.22;4912577;29;20044;-58
2021/12/12 08:43:27;;;;;;;12.63;5.10;;;;;;;3.81;99.77;98996.75;4909983;29;20123;-59
2021/12/12 08:45:57;;;;;;;12.10;4.47;;;;;;;4.26;97.08;99000.22;4910321;29;20035;-58
2021/12/12 08:48:24;;;;;;;11.88;5.07;;;;;;;4.46;100.00;99009.72;4910074;29;20032;-59
2021/12/12 08:50:55;;;;;;;8.40;4.57;;;;;;;4.73;100.00;99011.41;4910431;29;20119;-58
2021/12/12 08:53:21;;;;;;;9.05;4.43;;;;;;;5.09;100.00;98996.66;4910036;29;20028;-59
2021/12/12 08:55:50;;;;;;;16.67;5.22;;;;;;;4.82;100.00;99012.25;4909242;29;20036;-59
2021/12/12 08:58:19;;;;;;;10.55;4.65;;;;;;;4.98;96.09;99009.63;4911346;29;20297;-58
2021/12/12 09:00:56;;;;;;;10.65;4.60;;;;;;;5.01;92.05;99014.81;4910888;29;20549;-58
2021/12/12 09:03:50;;;;;;;11.32;5.03;;;;;;;4.92;95.76;99012.25;4910220;29;20035;-58
2021/12/12 09:06:17;;;;;;;12.18;4.93;;;;;;;5.01;100.00;99017.38;4909253;29;20081;-59
2021/12/12 09:08:53;;;;;;;8.80;4.60;;;;;;;5.13;89.06;99017.38;4912902;29;20020;-59
2021/12/12 09:11:24;;;;;;;11.77;5.10;;;;;;;5.98;92.19;99009.25;4909477;28;20040;-58
2021/12/12 09:13:58;;;;;;;11.93;4.68;;;;;;;5.66;100.00;99011.97;4911526;29;20050;-58
2021/12/12 09:16:40;;;;;;;11.40;4.93;;;;;;;5.56;100.00;99009.44;4910621;29;20043;-59
2021/12/12 09:19:12;;;;;;;9.60;4.65;;;;;;;5.38;100.00;99012.94;4911159;29;20574;-57
2021/12/12 09:21:53;;;;;;;12.05;5.05;;;;;;;5.26;94.41;99010.44;4910021;29;20051;-58
2021/12/12 09:24:45;;;;;;;11.65;5.55;;;;;;;5.25;94.59;99006.09;4909376;29;20027;-57
2021/12/12 09:27:16;;;;;;;11.82;4.53;;;;;;;5.73;100.00;99008.50;4906919;29;20042;-57
2021/12/12 09:29:51;;;;;;;11.75;4.97;;;;;;;5.51;100.00;98999.97;4909831;29;20024;-60
2021/12/12 09:32:25;;;;;;;9.90;4.70;;;;;;;5.20;93.83;99003.56;4910292;28;20069;-59
2021/12/12 09:35:08;;;;;;;7.18;4.15;;;;;;;6.35;100.00;99002.06;4914205;29;20033;-59
2021/12/12 09:37:39;;;;;;;12.38;4.93;;;;;;;5.79;100.00;98992.94;4913461;29;20093;-58
2021/12/12 09:40:10;;;;;;;7.43;4.30;;;;;;;6.39;99.40;98986.50;4913739;29;20028;-59
2021/12/12 09:42:57;;;;;;;9.65;4.68;;;;;;;5.97;86.99;98982.50;4913710;29;20046;-57
2021/12/12 09:45:48;;;;;;;6.95;3.92;;;;;;;6.80;93.05;98982.66;4913178;29;21219;-58
2021/12/12 09:51:49;;;;;;;8.48;4.50;;;;;;;6.70;98.68;98971.53;4912021;29;20063;-58
2021/12/12 09:54:26;;;;;;;10.15;4.75;;;;;;;6.41;81.50;98964.03;4911358;29;20027;-59
2021/12/12 09:56:58;;;;;;;11.60;4.78;;;;;;;6.81;85.00;98966.25;4920333;29;20044;-59
2021/12/12 09:59:58;;;;;;;6.30;4.13;;;;;;;6.68;100.00;98966.34;4918712;29;20110;-58
2021/12/12 10:02:37;;;;;;;6.55;3.70;;;;;;;6.73;80.76;98964.56;4920470;29;20646;-60
2021/12/12 10:05:17;;;;;;;6.70;3.60;;;;;;;6.62;85.28;98958.66;4915547;28;20082;-59
2021/12/12 10:08:08;;;;;;;9.48;4.13;;;;;;;6.70;86.57;98961.16;4914206;29;20769;-59
2021/12/12 10:10:55;;;;;;;9.98;4.40;;;;;;;6.72;80.37;98952.47;4915038;29;20040;-59
2021/12/12 10:13:35;;;;;;;10.23;4.63;;;;;;;7.63;100.00;98950.56;4912491;29;20119;-55
2021/12/12 10:16:24;;;;;;;4.95;3.05;;;;;;;9.70;100.00;98956.38;4910411;29;20055;-57
2021/12/12 10:19:01;;;;;;;4.97;3.30;;;;;;;7.56;96.17;98954.13;4915907;29;20023;-57
2021/12/12 10:21:35;;;;;;;8.05;3.47;;;;;;;7.51;82.71;98948.97;4911583;28;20047;-56
2021/12/12 10:24:07;;;;;;;6.70;2.97;;;;;;;7.97;83.59;98945.72;4914850;29;20482;-56
2021/12/12 10:26:41;;;;;;;9.20;3.60;;;;;;;7.88;76.47;98944.13;4910050;29;20139;-58
2021/12/12 10:29:18;;;;;;;5.43;3.00;;;;;;;7.99;79.57;98956.94;4913757;29;20550;-56
2021/12/12 10:31:52;;;;;;;6.63;3.53;;;;;;;7.56;78.70;98951.50;4912654;28;20028;-56
2021/12/12 10:34:23;;;;;;;7.03;3.15;;;;;;;7.66;83.59;98947.91;4912014;29;20035;-57
2021/12/12 10:37:05;;;;;;;7.10;2.95;;;;;;;8.63;83.10;98949.00;4919704;29;20068;-56
2021/12/12 10:39:35;;;;;;;5.75;2.63;;;;;;;8.16;80.97;98941.09;4918018;29;20134;-55
2021/12/12 10:42:08;;;;;;;5.45;3.35;;;;;;;8.13;80.65;98938.53;4910624;29;20054;-54
2021/12/12 10:44:39;;;;;;;6.68;3.22;;;;;;;7.73;82.47;98937.41;4911691;29;20798;-57
2021/12/12 10:47:16;;;;;;;5.35;2.90;;;;;;;7.56;79.22;98931.59;4913256;29;20142;-55
2021/12/12 10:50:12;;;;;;;5.72;3.00;;;;;;;7.87;75.29;98932.00;4913794;29;20115;-58
2021/12/12 10:52:46;;;;;;;6.68;3.35;;;;;;;7.85;81.08;98931.19;4913131;29;20051;-56
2021/12/12 10:55:17;;;;;;;8.20;2.97;;;;;;;8.49;82.75;98921.50;4911381;29;20019;-56
2021/12/12 10:57:45;;;;;;;6.88;3.20;;;;;;;7.75;76.11;98927.00;4926653;28;20071;-56
2021/12/12 11:00:22;;;;;;;5.32;2.85;;;;;;;8.37;74.64;98921.66;4911114;29;20027;-56
2021/12/12 11:03:04;;;;;;;8.85;3.10;;;;;;;8.18;89.70;98918.53;4909750;29;20034;-56
2021/12/12 11:05:37;;;;;;;4.47;2.45;;;;;;;9.52;74.74;98916.00;4909112;29;20040;-58
2021/12/12 11:08:23;;;;;;;4.57;2.72;;;;;;;9.14;82.86;98914.22;4907106;29;20114;-57
2021/12/12 11:10:51;;;;;;;7.43;3.47;;;;;;;8.10;72.25;98922.97;4909656;28;20036;-55
2021/12/12 11:13:21;;;;;;;7.38;2.88;;;;;;;9.49;72.14;98920.41;4914728;29;20031;-55
2021/12/12 11:15:55;;;;;;;5.95;2.80;;;;;;;8.87;76.11;98921.66;4908428;29;20510;-56
2021/12/12 11:18:49;;;;;;;4.07;2.15;;;;;;;10.10;74.47;98924.19;4909348;29;20035;-55
2021/12/12 11:21:24;;;;;;;7.75;2.97;;;;;;;8.05;74.20;98909.19;4916029;29;20039;-56
2021/12/12 11:24:01;;;;;;;7.25;3.10;;;;;;;9.01;71.94;98908.38;4907355;29;20111;-56
2021/12/12 11:26:43;;;;;;;5.55;3.10;;;;;;;9.03;76.24;98906.63;4907892;29;20378;-57
2021/12/12 11:29:18;;;;;;;5.38;2.33;;;;;;;10.45;70.11;98908.59;4926443;28;20841;-55
2021/12/12 11:31:54;;;;;;;6.20;2.42;;;;;;;9.19;72.99;98909.75;4910414;29;20080;-57
2021/12/12 11:34:22;;;;;;;4.95;2.63;;;;;;;9.77;75.56;98907.63;4908054;29;20024;-57
2021/12/12 11:37:05;;;;;;;6.43;3.03;;;;;;;8.61;73.87;98914.34;4908389;28;20856;-55
2021/12/12 11:39:40;;;;;;;6.03;3.08;;;;;;;8.23;77.05;98910.66;4909232;29;20047;-56
2021/12/12 11:42:14;;;;;;;7.38;3.20;;;;;;;8.21;73.59;98917.63;4908807;28;20766;-56
2021/12/12 11:44:52;;;;;;;7.60;3.40;;;;;;;7.80;70.60;98914.78;4908909;29;20123;-58
2021/12/12 11:47:36;;;;;;;5.82;2.58;;;;;;;9.22;72.77;98923.53;4906892;28;20159;-54
2021/12/12 11:50:14;;;;;;;10.55;3.20;;;;;;;8.92;69.47;98914.63;4909576;29;20111;-56
2021/12/12 11:52:56;;;;;;;5.78;2.90;;;;;;;8.74;68.88;98909.78;4907990;29;20103;-55
2021/12/12 11:55:41;;;;;;;6.68;3.30;;;;;;;8.47;71.25;98910.28;4908185;28;20031;-56
2021/12/12 11:58:29;;;;;;;6.88;3.70;;;;;;;8.86;71.72;98909.56;4909040;29;20027;-56
2021/12/12 12:01:28;;;;;;;5.20;2.33;;;;;;;11.84;74.37;98895.88;4909021;29;20130;-55
2021/12/12 12:03:53;;;;;;;5.78;2.70;;;;;;;9.24;67.63;98894.88;4906351;29;20028;-56
2021/12/12 12:06:48;;;;;;;7.63;3.50;;;;;;;8.62;70.46;98893.53;4909315;29;20040;-56
2021/12/12 12:09:36;;;;;;;5.43;2.50;;;;;;;9.21;66.70;98900.19;4908503;29;20643;-58
2021/12/12 12:12:24;;;;;;;5.95;2.78;;;;;;;9.22;68.10;98891.47;4910105;29;20509;-55